sensor_id;sensor_type;location;lat;lon;timestamp;pressure;altitude;pressure_sealevel;temperature;humidity
57412;BME280;43247;52.828;-8.980;2023-09-18T00:00:47;100333.61;;;15.92;92.51
57412;BME280;43247;52.828;-8.980;2023-09-18T00:01:46;100329.78;;;15.91;92.44
57412;BME280;43247;52.828;-8.980;2023-09-18T00:02:46;100328.69;;;15.90;92.38
57412;BME280;43247;52.828;-8.980;2023-09-18T00:03:46;100327.84;;;15.89;92.36
57412;BME280;43247;52.828;-8.980;2023-09-18T00:04:46;100326.82;;;15.88;92.34
57412;BME280;43247;52.828;-8.980;2023-09-18T00:05:47;100325.14;;;15.87;92.37
57412;BME280;43247;52.828;-8.980;2023-09-18T00:06:47;100324.43;;;15.86;92.35
57412;BME280;43247;52.828;-8.980;2023-09-18T00:07:47;100322.26;;;15.85;92.35
57412;BME280;43247;52.828;-8.980;2023-09-18T00:08:47;100322.08;;;15.85;92.33
57412;BME280;43247;52.828;-8.980;2023-09-18T00:09:47;100324.71;;;15.84;92.29
57412;BME280;43247;52.828;-8.980;2023-09-18T00:10:48;100322.65;;;15.83;92.25
57412;BME280;43247;52.828;-8.980;2023-09-18T00:11:47;100323.80;;;15.83;92.24
57412;BME280;43247;52.828;-8.980;2023-09-18T00:12:48;100324.12;;;15.82;92.26
57412;BME280;43247;52.828;-8.980;2023-09-18T00:13:48;100326.23;;;15.81;92.29
57412;BME280;43247;52.828;-8.980;2023-09-18T00:14:48;100329.22;;;15.80;92.23
57412;BME280;43247;52.828;-8.980;2023-09-18T00:15:48;100329.34;;;15.79;92.19
57412;BME280;43247;52.828;-8.980;2023-09-18T00:16:48;100331.41;;;15.78;92.19
57412;BME280;43247;52.828;-8.980;2023-09-18T00:17:48;100330.91;;;15.78;92.18
57412;BME280;43247;52.828;-8.980;2023-09-18T00:18:48;100332.18;;;15.77;92.16
57412;BME280;43247;52.828;-8.980;2023-09-18T00:19:49;100331.43;;;15.76;92.15
57412;BME280;43247;52.828;-8.980;2023-09-18T00:20:49;100330.11;;;15.75;92.13
57412;BME280;43247;52.828;-8.980;2023-09-18T00:21:49;100327.10;;;15.74;92.06
57412;BME280;43247;52.828;-8.980;2023-09-18T00:22:49;100327.78;;;15.73;92.04
57412;BME280;43247;52.828;-8.980;2023-09-18T00:23:49;100325.11;;;15.72;92.05
57412;BME280;43247;52.828;-8.980;2023-09-18T00:24:49;100326.09;;;15.72;92.05
57412;BME280;43247;52.828;-8.980;2023-09-18T00:25:49;100326.11;;;15.71;92.09
57412;BME280;43247;52.828;-8.980;2023-09-18T00:26:50;100325.14;;;15.70;92.08
57412;BME280;43247;52.828;-8.980;2023-09-18T00:27:50;100319.28;;;15.69;92.15
57412;BME280;43247;52.828;-8.980;2023-09-18T00:28:50;100320.87;;;15.69;92.14
57412;BME280;43247;52.828;-8.980;2023-09-18T00:29:51;100319.42;;;15.68;92.07
57412;BME280;43247;52.828;-8.980;2023-09-18T00:30:51;100317.69;;;15.67;92.11
57412;BME280;43247;52.828;-8.980;2023-09-18T00:31:51;100321.10;;;15.67;92.06
57412;BME280;43247;52.828;-8.980;2023-09-18T00:32:51;100322.26;;;15.66;92.05
57412;BME280;43247;52.828;-8.980;2023-09-18T00:33:51;100324.48;;;15.65;91.99
57412;BME280;43247;52.828;-8.980;2023-09-18T00:34:51;100322.12;;;15.64;92.05
57412;BME280;43247;52.828;-8.980;2023-09-18T00:35:52;100322.22;;;15.63;92.03
57412;BME280;43247;52.828;-8.980;2023-09-18T00:36:52;100318.12;;;15.62;92.00
57412;BME280;43247;52.828;-8.980;2023-09-18T00:37:52;100316.86;;;15.61;91.97
57412;BME280;43247;52.828;-8.980;2023-09-18T00:38:52;100316.20;;;15.60;91.95
57412;BME280;43247;52.828;-8.980;2023-09-18T00:39:52;100313.40;;;15.59;91.97
57412;BME280;43247;52.828;-8.980;2023-09-18T00:40:52;100315.09;;;15.58;91.97
57412;BME280;43247;52.828;-8.980;2023-09-18T00:41:52;100315.15;;;15.57;91.96
57412;BME280;43247;52.828;-8.980;2023-09-18T00:42:53;100315.09;;;15.56;91.98
57412;BME280;43247;52.828;-8.980;2023-09-18T00:43:53;100313.29;;;15.56;91.94
57412;BME280;43247;52.828;-8.980;2023-09-18T00:44:53;100310.22;;;15.55;91.94
57412;BME280;43247;52.828;-8.980;2023-09-18T00:45:53;100306.99;;;15.54;91.92
57412;BME280;43247;52.828;-8.980;2023-09-18T00:46:53;100307.65;;;15.53;91.95
57412;BME280;43247;52.828;-8.980;2023-09-18T00:47:53;100306.75;;;15.52;91.91
57412;BME280;43247;52.828;-8.980;2023-09-18T00:48:54;100309.52;;;15.51;91.91
57412;BME280;43247;52.828;-8.980;2023-09-18T00:49:54;100308.01;;;15.50;91.94
57412;BME280;43247;52.828;-8.980;2023-09-18T00:50:54;100310.44;;;15.49;91.91
57412;BME280;43247;52.828;-8.980;2023-09-18T00:51:54;100309.57;;;15.49;91.92
57412;BME280;43247;52.828;-8.980;2023-09-18T00:52:54;100309.06;;;15.48;91.89
57412;BME280;43247;52.828;-8.980;2023-09-18T00:53:54;100309.98;;;15.47;91.91
57412;BME280;43247;52.828;-8.980;2023-09-18T00:54:55;100311.60;;;15.46;91.88
57412;BME280;43247;52.828;-8.980;2023-09-18T00:55:57;100309.81;;;15.45;91.93
57412;BME280;43247;52.828;-8.980;2023-09-18T00:56:55;100310.29;;;15.44;91.92
57412;BME280;43247;52.828;-8.980;2023-09-18T00:57:55;100312.98;;;15.43;91.84
57412;BME280;43247;52.828;-8.980;2023-09-18T00:58:55;100315.90;;;15.42;91.83
57412;BME280;43247;52.828;-8.980;2023-09-18T00:59:55;100316.57;;;15.41;91.85
57412;BME280;43247;52.828;-8.980;2023-09-18T01:00:56;100313.95;;;15.40;91.84
57412;BME280;43247;52.828;-8.980;2023-09-18T01:01:56;100311.57;;;15.39;91.82
57412;BME280;43247;52.828;-8.980;2023-09-18T01:02:56;100310.48;;;15.38;91.82
57412;BME280;43247;52.828;-8.980;2023-09-18T01:03:56;100312.19;;;15.38;91.82
57412;BME280;43247;52.828;-8.980;2023-09-18T01:04:56;100310.58;;;15.37;91.72
57412;BME280;43247;52.828;-8.980;2023-09-18T01:05:56;100310.68;;;15.35;91.67
57412;BME280;43247;52.828;-8.980;2023-09-18T01:06:56;100309.82;;;15.34;91.82
57412;BME280;43247;52.828;-8.980;2023-09-18T01:07:56;100307.23;;;15.33;91.99
57412;BME280;43247;52.828;-8.980;2023-09-18T01:08:57;100304.83;;;15.33;92.01
57412;BME280;43247;52.828;-8.980;2023-09-18T01:09:57;100304.44;;;15.33;91.92
57412;BME280;43247;52.828;-8.980;2023-09-18T01:11:03;100301.68;;;15.32;91.81
57412;BME280;43247;52.828;-8.980;2023-09-18T01:12:03;100302.02;;;15.32;91.68
57412;BME280;43247;52.828;-8.980;2023-09-18T01:13:04;100300.75;;;15.32;91.55
57412;BME280;43247;52.828;-8.980;2023-09-18T01:14:09;100301.86;;;15.31;91.45
57412;BME280;43247;52.828;-8.980;2023-09-18T01:15:03;100301.94;;;15.31;91.36
57412;BME280;43247;52.828;-8.980;2023-09-18T01:16:02;100302.09;;;15.30;91.26
57412;BME280;43247;52.828;-8.980;2023-09-18T01:17:00;100300.84;;;15.30;91.24
57412;BME280;43247;52.828;-8.980;2023-09-18T01:17:59;100296.74;;;15.29;91.14
57412;BME280;43247;52.828;-8.980;2023-09-18T01:18:58;100294.72;;;15.29;90.97
57412;BME280;43247;52.828;-8.980;2023-09-18T01:19:58;100291.37;;;15.28;90.87
57412;BME280;43247;52.828;-8.980;2023-09-18T01:20:58;100289.61;;;15.27;90.78
57412;BME280;43247;52.828;-8.980;2023-09-18T01:21:59;100289.09;;;15.26;90.70
57412;BME280;43247;52.828;-8.980;2023-09-18T01:22:59;100287.34;;;15.25;90.60
57412;BME280;43247;52.828;-8.980;2023-09-18T01:23:59;100284.94;;;15.24;90.51
57412;BME280;43247;52.828;-8.980;2023-09-18T01:24:59;100285.98;;;15.23;90.40
57412;BME280;43247;52.828;-8.980;2023-09-18T01:25:59;100284.65;;;15.22;90.31
57412;BME280;43247;52.828;-8.980;2023-09-18T01:27:00;100283.77;;;15.21;90.21
57412;BME280;43247;52.828;-8.980;2023-09-18T01:28:00;100281.03;;;15.20;90.09
57412;BME280;43247;52.828;-8.980;2023-09-18T01:29:00;100280.07;;;15.19;90.04
57412;BME280;43247;52.828;-8.980;2023-09-18T01:30:00;100277.72;;;15.18;89.93
57412;BME280;43247;52.828;-8.980;2023-09-18T01:31:00;100277.63;;;15.17;89.88
57412;BME280;43247;52.828;-8.980;2023-09-18T01:32:00;100274.37;;;15.16;89.82
57412;BME280;43247;52.828;-8.980;2023-09-18T01:33:02;100271.14;;;15.14;89.73
57412;BME280;43247;52.828;-8.980;2023-09-18T01:34:01;100270.94;;;15.13;89.63
57412;BME280;43247;52.828;-8.980;2023-09-18T01:35:02;100271.95;;;15.12;89.64
57412;BME280;43247;52.828;-8.980;2023-09-18T01:36:01;100269.84;;;15.10;89.69
57412;BME280;43247;52.828;-8.980;2023-09-18T01:37:01;100268.81;;;15.08;89.71
57412;BME280;43247;52.828;-8.980;2023-09-18T01:38:01;100268.83;;;15.06;89.71
57412;BME280;43247;52.828;-8.980;2023-09-18T01:39:02;100265.46;;;15.05;89.71
57412;BME280;43247;52.828;-8.980;2023-09-18T01:40:06;100263.10;;;15.04;89.65
57412;BME280;43247;52.828;-8.980;2023-09-18T01:41:03;100262.84;;;15.02;89.64
57412;BME280;43247;52.828;-8.980;2023-09-18T01:42:04;100258.48;;;15.01;89.61
57412;BME280;43247;52.828;-8.980;2023-09-18T01:43:04;100255.17;;;15.00;89.55
57412;BME280;43247;52.828;-8.980;2023-09-18T01:44:04;100252.85;;;14.98;89.50
57412;BME280;43247;52.828;-8.980;2023-09-18T01:45:05;100251.14;;;14.97;89.48
57412;BME280;43247;52.828;-8.980;2023-09-18T01:46:05;100251.06;;;14.95;89.41
57412;BME280;43247;52.828;-8.980;2023-09-18T01:47:06;100247.78;;;14.95;89.36
57412;BME280;43247;52.828;-8.980;2023-09-18T01:48:05;100245.35;;;14.93;89.38
57412;BME280;43247;52.828;-8.980;2023-09-18T01:49:04;100244.04;;;14.92;89.29
57412;BME280;43247;52.828;-8.980;2023-09-18T01:50:06;100245.45;;;14.91;89.32
57412;BME280;43247;52.828;-8.980;2023-09-18T01:51:05;100241.67;;;14.89;89.29
57412;BME280;43247;52.828;-8.980;2023-09-18T01:52:07;100238.24;;;14.89;89.29
57412;BME280;43247;52.828;-8.980;2023-09-18T01:53:05;100235.93;;;14.88;89.28
57412;BME280;43247;52.828;-8.980;2023-09-18T01:54:06;100236.86;;;14.87;89.23
57412;BME280;43247;52.828;-8.980;2023-09-18T01:55:06;100236.31;;;14.86;89.26
57412;BME280;43247;52.828;-8.980;2023-09-18T01:56:06;100236.27;;;14.85;89.33
57412;BME280;43247;52.828;-8.980;2023-09-18T01:57:06;100237.03;;;14.84;89.34
57412;BME280;43247;52.828;-8.980;2023-09-18T01:58:06;100235.45;;;14.82;89.34
57412;BME280;43247;52.828;-8.980;2023-09-18T01:59:06;100235.90;;;14.81;89.34
57412;BME280;43247;52.828;-8.980;2023-09-18T02:00:07;100231.64;;;14.80;89.35
57412;BME280;43247;52.828;-8.980;2023-09-18T02:01:06;100233.87;;;14.79;89.38
57412;BME280;43247;52.828;-8.980;2023-09-18T02:02:07;100231.21;;;14.78;89.37
57412;BME280;43247;52.828;-8.980;2023-09-18T02:03:07;100230.86;;;14.77;89.40
57412;BME280;43247;52.828;-8.980;2023-09-18T02:04:07;100229.16;;;14.77;89.31
57412;BME280;43247;52.828;-8.980;2023-09-18T02:05:07;100222.37;;;14.76;89.28
57412;BME280;43247;52.828;-8.980;2023-09-18T02:06:07;100220.05;;;14.75;89.35
57412;BME280;43247;52.828;-8.980;2023-09-18T02:07:07;100221.22;;;14.74;89.40
57412;BME280;43247;52.828;-8.980;2023-09-18T02:08:07;100218.36;;;14.73;89.39
57412;BME280;43247;52.828;-8.980;2023-09-18T02:09:08;100216.04;;;14.72;89.36
57412;BME280;43247;52.828;-8.980;2023-09-18T02:10:08;100214.84;;;14.71;89.39
57412;BME280;43247;52.828;-8.980;2023-09-18T02:11:08;100213.54;;;14.71;89.43
57412;BME280;43247;52.828;-8.980;2023-09-18T02:12:08;100207.95;;;14.70;89.46
57412;BME280;43247;52.828;-8.980;2023-09-18T02:13:08;100205.45;;;14.69;89.55
57412;BME280;43247;52.828;-8.980;2023-09-18T02:14:09;100202.61;;;14.68;89.50
57412;BME280;43247;52.828;-8.980;2023-09-18T02:15:09;100201.07;;;14.67;89.49
57412;BME280;43247;52.828;-8.980;2023-09-18T02:16:09;100200.88;;;14.66;89.58
57412;BME280;43247;52.828;-8.980;2023-09-18T02:17:09;100197.28;;;14.65;89.67
57412;BME280;43247;52.828;-8.980;2023-09-18T02:18:09;100197.71;;;14.64;89.65
57412;BME280;43247;52.828;-8.980;2023-09-18T02:19:10;100193.53;;;14.64;89.73
57412;BME280;43247;52.828;-8.980;2023-09-18T02:20:10;100195.50;;;14.62;89.73
57412;BME280;43247;52.828;-8.980;2023-09-18T02:21:09;100196.09;;;14.62;89.78
57412;BME280;43247;52.828;-8.980;2023-09-18T02:22:10;100196.03;;;14.61;89.75
57412;BME280;43247;52.828;-8.980;2023-09-18T02:23:10;100195.48;;;14.60;89.75
57412;BME280;43247;52.828;-8.980;2023-09-18T02:24:10;100193.36;;;14.59;89.78
57412;BME280;43247;52.828;-8.980;2023-09-18T02:25:10;100193.34;;;14.58;89.80
57412;BME280;43247;52.828;-8.980;2023-09-18T02:26:10;100191.97;;;14.58;89.82
57412;BME280;43247;52.828;-8.980;2023-09-18T02:27:10;100196.21;;;14.57;89.89
57412;BME280;43247;52.828;-8.980;2023-09-18T02:28:10;100196.40;;;14.56;89.92
57412;BME280;43247;52.828;-8.980;2023-09-18T02:29:11;100197.55;;;14.56;89.91
57412;BME280;43247;52.828;-8.980;2023-09-18T02:30:12;100196.46;;;14.55;90.03
57412;BME280;43247;52.828;-8.980;2023-09-18T02:31:11;100195.96;;;14.54;89.96
57412;BME280;43247;52.828;-8.980;2023-09-18T02:32:13;100194.64;;;14.54;90.00
57412;BME280;43247;52.828;-8.980;2023-09-18T02:33:11;100195.39;;;14.53;90.05
57412;BME280;43247;52.828;-8.980;2023-09-18T02:34:11;100193.24;;;14.52;90.15
57412;BME280;43247;52.828;-8.980;2023-09-18T02:35:12;100191.98;;;14.52;90.18
57412;BME280;43247;52.828;-8.980;2023-09-18T02:36:13;100190.55;;;14.51;90.25
57412;BME280;43247;52.828;-8.980;2023-09-18T02:37:12;100189.94;;;14.51;90.36
57412;BME280;43247;52.828;-8.980;2023-09-18T02:38:13;100189.77;;;14.51;90.33
57412;BME280;43247;52.828;-8.980;2023-09-18T02:39:13;100186.85;;;14.51;90.40
57412;BME280;43247;52.828;-8.980;2023-09-18T02:40:13;100184.65;;;14.50;90.43
57412;BME280;43247;52.828;-8.980;2023-09-18T02:41:13;100182.12;;;14.50;90.51
57412;BME280;43247;52.828;-8.980;2023-09-18T02:42:13;100183.06;;;14.50;90.59
57412;BME280;43247;52.828;-8.980;2023-09-18T02:43:13;100182.56;;;14.49;90.58
57412;BME280;43247;52.828;-8.980;2023-09-18T02:44:14;100180.42;;;14.49;90.71
57412;BME280;43247;52.828;-8.980;2023-09-18T02:45:14;100177.94;;;14.50;90.69
57412;BME280;43247;52.828;-8.980;2023-09-18T02:46:14;100177.03;;;14.50;90.71
57412;BME280;43247;52.828;-8.980;2023-09-18T02:47:14;100176.51;;;14.49;90.80
57412;BME280;43247;52.828;-8.980;2023-09-18T02:48:14;100176.86;;;14.49;90.89
57412;BME280;43247;52.828;-8.980;2023-09-18T02:49:14;100175.86;;;14.49;90.86
57412;BME280;43247;52.828;-8.980;2023-09-18T02:50:15;100176.21;;;14.49;90.91
57412;BME280;43247;52.828;-8.980;2023-09-18T02:51:15;100175.93;;;14.49;90.92
57412;BME280;43247;52.828;-8.980;2023-09-18T02:52:15;100177.56;;;14.49;91.01
57412;BME280;43247;52.828;-8.980;2023-09-18T02:53:17;100176.46;;;14.49;91.02
57412;BME280;43247;52.828;-8.980;2023-09-18T02:54:15;100175.48;;;14.49;91.05
57412;BME280;43247;52.828;-8.980;2023-09-18T02:55:15;100176.66;;;14.49;91.10
57412;BME280;43247;52.828;-8.980;2023-09-18T02:56:15;100177.59;;;14.49;91.14
57412;BME280;43247;52.828;-8.980;2023-09-18T02:57:16;100175.63;;;14.48;91.21
57412;BME280;43247;52.828;-8.980;2023-09-18T02:58:16;100175.28;;;14.49;91.43
57412;BME280;43247;52.828;-8.980;2023-09-18T02:59:16;100173.14;;;14.49;91.55
57412;BME280;43247;52.828;-8.980;2023-09-18T03:00:17;100171.69;;;14.49;91.21
57412;BME280;43247;52.828;-8.980;2023-09-18T03:01:17;100171.07;;;14.51;90.74
57412;BME280;43247;52.828;-8.980;2023-09-18T03:02:17;100172.73;;;14.53;90.11
57412;BME280;43247;52.828;-8.980;2023-09-18T03:03:18;100171.68;;;14.56;89.63
57412;BME280;43247;52.828;-8.980;2023-09-18T03:04:17;100173.73;;;14.59;89.05
57412;BME280;43247;52.828;-8.980;2023-09-18T03:05:17;100179.11;;;14.63;88.58
57412;BME280;43247;52.828;-8.980;2023-09-18T03:06:18;100182.89;;;14.65;88.18
57412;BME280;43247;52.828;-8.980;2023-09-18T03:07:18;100183.46;;;14.68;87.87
57412;BME280;43247;52.828;-8.980;2023-09-18T03:08:18;100178.80;;;14.70;87.68
57412;BME280;43247;52.828;-8.980;2023-09-18T03:09:18;100174.76;;;14.72;87.43
57412;BME280;43247;52.828;-8.980;2023-09-18T03:10:18;100174.06;;;14.74;87.24
57412;BME280;43247;52.828;-8.980;2023-09-18T03:11:18;100170.50;;;14.75;87.15
57412;BME280;43247;52.828;-8.980;2023-09-18T03:12:18;100171.02;;;14.77;86.96
57412;BME280;43247;52.828;-8.980;2023-09-18T03:13:19;100163.01;;;14.78;86.93
57412;BME280;43247;52.828;-8.980;2023-09-18T03:14:19;100156.95;;;14.78;86.92
57412;BME280;43247;52.828;-8.980;2023-09-18T03:15:19;100158.94;;;14.79;87.16
57412;BME280;43247;52.828;-8.980;2023-09-18T03:16:19;100156.48;;;14.80;87.10
57412;BME280;43247;52.828;-8.980;2023-09-18T03:17:19;100156.15;;;14.80;87.23
57412;BME280;43247;52.828;-8.980;2023-09-18T03:18:19;100159.46;;;14.80;87.43
57412;BME280;43247;52.828;-8.980;2023-09-18T03:19:19;100161.99;;;14.80;87.46
57412;BME280;43247;52.828;-8.980;2023-09-18T03:20:22;100168.27;;;14.81;87.65
57412;BME280;43247;52.828;-8.980;2023-09-18T03:21:20;100171.10;;;14.81;87.96
57412;BME280;43247;52.828;-8.980;2023-09-18T03:22:20;100173.48;;;14.81;88.15
57412;BME280;43247;52.828;-8.980;2023-09-18T03:23:20;100176.02;;;14.81;88.50
57412;BME280;43247;52.828;-8.980;2023-09-18T03:24:21;100182.96;;;14.82;88.87
57412;BME280;43247;52.828;-8.980;2023-09-18T03:25:21;100179.67;;;14.81;89.19
57412;BME280;43247;52.828;-8.980;2023-09-18T03:26:21;100181.51;;;14.80;89.06
57412;BME280;43247;52.828;-8.980;2023-09-18T03:27:21;100179.82;;;14.80;89.28
57412;BME280;43247;52.828;-8.980;2023-09-18T03:28:21;100179.75;;;14.81;89.35
57412;BME280;43247;52.828;-8.980;2023-09-18T03:29:21;100183.68;;;14.81;89.57
57412;BME280;43247;52.828;-8.980;2023-09-18T03:30:23;100180.19;;;14.80;89.79
57412;BME280;43247;52.828;-8.980;2023-09-18T03:31:21;100185.82;;;14.80;89.78
57412;BME280;43247;52.828;-8.980;2023-09-18T03:32:22;100178.11;;;14.81;89.92
57412;BME280;43247;52.828;-8.980;2023-09-18T03:33:22;100177.39;;;14.81;90.09
57412;BME280;43247;52.828;-8.980;2023-09-18T03:34:22;100180.07;;;14.81;90.14
57412;BME280;43247;52.828;-8.980;2023-09-18T03:35:22;100178.21;;;14.81;90.21
57412;BME280;43247;52.828;-8.980;2023-09-18T03:36:22;100179.26;;;14.81;90.42
57412;BME280;43247;52.828;-8.980;2023-09-18T03:37:22;100180.56;;;14.80;90.40
57412;BME280;43247;52.828;-8.980;2023-09-18T03:38:23;100179.66;;;14.80;90.47
57412;BME280;43247;52.828;-8.980;2023-09-18T03:39:23;100178.92;;;14.79;90.40
57412;BME280;43247;52.828;-8.980;2023-09-18T03:40:23;100180.65;;;14.79;90.30
57412;BME280;43247;52.828;-8.980;2023-09-18T03:41:23;100184.78;;;14.80;90.05
57412;BME280;43247;52.828;-8.980;2023-09-18T03:42:23;100185.72;;;14.80;90.15
57412;BME280;43247;52.828;-8.980;2023-09-18T03:43:23;100186.40;;;14.80;90.15
57412;BME280;43247;52.828;-8.980;2023-09-18T03:44:23;100188.84;;;14.80;90.09
57412;BME280;43247;52.828;-8.980;2023-09-18T03:45:24;100193.39;;;14.81;90.12
57412;BME280;43247;52.828;-8.980;2023-09-18T03:46:24;100189.77;;;14.81;90.28
57412;BME280;43247;52.828;-8.980;2023-09-18T03:47:24;100195.25;;;14.81;90.40
57412;BME280;43247;52.828;-8.980;2023-09-18T03:48:24;100194.78;;;14.80;90.40
57412;BME280;43247;52.828;-8.980;2023-09-18T03:49:24;100195.93;;;14.81;90.31
57412;BME280;43247;52.828;-8.980;2023-09-18T03:50:24;100191.76;;;14.81;90.45
57412;BME280;43247;52.828;-8.980;2023-09-18T03:51:24;100192.05;;;14.81;90.45
57412;BME280;43247;52.828;-8.980;2023-09-18T03:52:25;100192.17;;;14.81;90.49
57412;BME280;43247;52.828;-8.980;2023-09-18T03:53:25;100192.99;;;14.82;90.49
57412;BME280;43247;52.828;-8.980;2023-09-18T03:54:26;100190.82;;;14.82;90.76
57412;BME280;43247;52.828;-8.980;2023-09-18T03:55:26;100188.31;;;14.81;90.72
57412;BME280;43247;52.828;-8.980;2023-09-18T03:56:26;100187.58;;;14.81;90.74
57412;BME280;43247;52.828;-8.980;2023-09-18T03:57:27;100188.16;;;14.81;90.84
57412;BME280;43247;52.828;-8.980;2023-09-18T03:58:27;100188.85;;;14.81;90.81
57412;BME280;43247;52.828;-8.980;2023-09-18T03:59:27;100184.12;;;14.80;90.90
57412;BME280;43247;52.828;-8.980;2023-09-18T04:00:27;100186.53;;;14.81;90.84
57412;BME280;43247;52.828;-8.980;2023-09-18T04:01:27;100183.68;;;14.81;90.91
57412;BME280;43247;52.828;-8.980;2023-09-18T04:02:27;100179.42;;;14.80;90.93
57412;BME280;43247;52.828;-8.980;2023-09-18T04:03:28;100178.23;;;14.79;91.03
57412;BME280;43247;52.828;-8.980;2023-09-18T04:04:28;100173.13;;;14.79;91.04
57412;BME280;43247;52.828;-8.980;2023-09-18T04:05:28;100168.23;;;14.79;91.08
57412;BME280;43247;52.828;-8.980;2023-09-18T04:06:37;100169.86;;;14.78;91.06
57412;BME280;43247;52.828;-8.980;2023-09-18T04:07:29;100168.16;;;14.78;91.11
57412;BME280;43247;52.828;-8.980;2023-09-18T04:08:29;100172.93;;;14.78;91.07
57412;BME280;43247;52.828;-8.980;2023-09-18T04:09:29;100171.12;;;14.77;91.15
57412;BME280;43247;52.828;-8.980;2023-09-18T04:10:29;100168.50;;;14.76;91.18
57412;BME280;43247;52.828;-8.980;2023-09-18T04:11:29;100167.76;;;14.76;91.19
57412;BME280;43247;52.828;-8.980;2023-09-18T04:12:29;100164.67;;;14.75;91.20
57412;BME280;43247;52.828;-8.980;2023-09-18T04:13:30;100163.55;;;14.75;91.24
57412;BME280;43247;52.828;-8.980;2023-09-18T04:14:30;100165.14;;;14.74;91.18
57412;BME280;43247;52.828;-8.980;2023-09-18T04:15:30;100167.53;;;14.74;91.20
57412;BME280;43247;52.828;-8.980;2023-09-18T04:16:31;100169.00;;;14.73;91.26
57412;BME280;43247;52.828;-8.980;2023-09-18T04:17:31;100168.59;;;14.71;91.29
57412;BME280;43247;52.828;-8.980;2023-09-18T04:18:31;100167.32;;;14.71;91.25
57412;BME280;43247;52.828;-8.980;2023-09-18T04:19:31;100169.00;;;14.70;91.25
57412;BME280;43247;52.828;-8.980;2023-09-18T04:20:32;100170.84;;;14.69;91.33
57412;BME280;43247;52.828;-8.980;2023-09-18T04:21:32;100171.43;;;14.69;91.28
57412;BME280;43247;52.828;-8.980;2023-09-18T04:22:32;100168.67;;;14.68;91.34
57412;BME280;43247;52.828;-8.980;2023-09-18T04:23:33;100168.23;;;14.67;91.31
57412;BME280;43247;52.828;-8.980;2023-09-18T04:24:33;100166.53;;;14.68;91.29
57412;BME280;43247;52.828;-8.980;2023-09-18T04:25:33;100169.14;;;14.68;91.26
57412;BME280;43247;52.828;-8.980;2023-09-18T04:26:34;100168.86;;;14.68;91.22
57412;BME280;43247;52.828;-8.980;2023-09-18T04:27:34;100172.88;;;14.67;91.21
57412;BME280;43247;52.828;-8.980;2023-09-18T04:28:34;100177.88;;;14.66;91.22
57412;BME280;43247;52.828;-8.980;2023-09-18T04:29:34;100176.18;;;14.66;91.23
57412;BME280;43247;52.828;-8.980;2023-09-18T04:30:34;100178.99;;;14.65;91.23
57412;BME280;43247;52.828;-8.980;2023-09-18T04:31:34;100182.37;;;14.65;91.18
57412;BME280;43247;52.828;-8.980;2023-09-18T04:32:35;100181.27;;;14.64;91.10
57412;BME280;43247;52.828;-8.980;2023-09-18T04:33:35;100180.06;;;14.63;91.16
57412;BME280;43247;52.828;-8.980;2023-09-18T04:34:35;100178.89;;;14.63;91.17
57412;BME280;43247;52.828;-8.980;2023-09-18T04:35:36;100178.45;;;14.62;91.17
57412;BME280;43247;52.828;-8.980;2023-09-18T04:36:36;100181.79;;;14.61;91.18
57412;BME280;43247;52.828;-8.980;2023-09-18T04:37:37;100181.37;;;14.60;91.15
57412;BME280;43247;52.828;-8.980;2023-09-18T04:38:36;100181.24;;;14.59;91.16
57412;BME280;43247;52.828;-8.980;2023-09-18T04:39:36;100182.21;;;14.58;91.14
57412;BME280;43247;52.828;-8.980;2023-09-18T04:40:37;100182.11;;;14.57;91.17
57412;BME280;43247;52.828;-8.980;2023-09-18T04:41:37;100185.26;;;14.56;91.16
57412;BME280;43247;52.828;-8.980;2023-09-18T04:42:38;100180.85;;;14.55;91.15
57412;BME280;43247;52.828;-8.980;2023-09-18T04:43:38;100182.15;;;14.55;91.14
57412;BME280;43247;52.828;-8.980;2023-09-18T04:44:38;100181.58;;;14.54;91.12
57412;BME280;43247;52.828;-8.980;2023-09-18T04:45:38;100185.49;;;14.53;91.08
57412;BME280;43247;52.828;-8.980;2023-09-18T04:46:38;100184.56;;;14.53;91.06
57412;BME280;43247;52.828;-8.980;2023-09-18T04:47:39;100185.41;;;14.52;91.03
57412;BME280;43247;52.828;-8.980;2023-09-18T04:48:39;100185.29;;;14.51;91.07
57412;BME280;43247;52.828;-8.980;2023-09-18T04:49:39;100184.41;;;14.50;91.02
57412;BME280;43247;52.828;-8.980;2023-09-18T04:50:39;100184.58;;;14.48;91.06
57412;BME280;43247;52.828;-8.980;2023-09-18T04:51:39;100186.64;;;14.47;90.96
57412;BME280;43247;52.828;-8.980;2023-09-18T04:52:39;100188.02;;;14.47;90.92
57412;BME280;43247;52.828;-8.980;2023-09-18T04:53:40;100184.87;;;14.46;90.94
57412;BME280;43247;52.828;-8.980;2023-09-18T04:54:40;100184.86;;;14.45;90.90
57412;BME280;43247;52.828;-8.980;2023-09-18T04:55:40;100184.67;;;14.44;90.85
57412;BME280;43247;52.828;-8.980;2023-09-18T04:56:40;100187.08;;;14.43;90.83
57412;BME280;43247;52.828;-8.980;2023-09-18T04:57:40;100188.47;;;14.42;90.85
57412;BME280;43247;52.828;-8.980;2023-09-18T04:58:40;100189.13;;;14.41;90.82
57412;BME280;43247;52.828;-8.980;2023-09-18T04:59:41;100190.63;;;14.40;90.80
57412;BME280;43247;52.828;-8.980;2023-09-18T05:00:41;100190.39;;;14.39;90.80
57412;BME280;43247;52.828;-8.980;2023-09-18T05:01:41;100190.68;;;14.39;90.76
57412;BME280;43247;52.828;-8.980;2023-09-18T05:02:41;100188.19;;;14.38;90.74
57412;BME280;43247;52.828;-8.980;2023-09-18T05:03:41;100188.03;;;14.37;90.72
57412;BME280;43247;52.828;-8.980;2023-09-18T05:04:41;100187.97;;;14.36;90.68
57412;BME280;43247;52.828;-8.980;2023-09-18T05:05:42;100188.25;;;14.35;90.63
57412;BME280;43247;52.828;-8.980;2023-09-18T05:06:42;100190.24;;;14.35;90.64
57412;BME280;43247;52.828;-8.980;2023-09-18T05:07:42;100188.08;;;14.33;90.62
57412;BME280;43247;52.828;-8.980;2023-09-18T05:08:43;100189.54;;;14.33;90.58
57412;BME280;43247;52.828;-8.980;2023-09-18T05:09:42;100191.04;;;14.32;90.59
57412;BME280;43247;52.828;-8.980;2023-09-18T05:10:42;100191.30;;;14.31;90.62